KFOE

Topeka Regional Airport

Topeka, Kansas, USA
KFOE 211732Z 2118/2218 01013G17KT P6SM SKC FM220100 02005KT P6SM FEW250 FM220900 VRB03KT 6SM BR FEW250 FM221300 06004KT P6SM SCT250
Issued Valid From Valid To
Jul-21 @ 17:32 UTC
(6 hours ago)
Jul-21 @ 18:00 UTC
(5 hours ago)
Jul-22 @ 18:00 UTC
(in 19 hours)
Jul-21 @ 18:00 to Jul-22 @ 01:00
KFOE 211732Z 2118/2218 01013G17KT P6SM SKC
Wind Visibility Clouds
10° at 13 knots
 Gusting to 17 knots
Greater than 6 miles
  • Clear skies
From Jul-22 @ 01:00 to Jul-22 @ 09:00
FM220100 02005KT P6SM FEW250
Wind Visibility Clouds
20° at 5 knots Greater than 6 miles
  • Few at 25,000' AGL
From Jul-22 @ 09:00 to Jul-22 @ 13:00
FM220900 VRB03KT 6SM BR FEW250
Wind Visibility Clouds Conditions
Variable at 3 knots 6 miles
  • Few at 25,000' AGL
  • Mist
From Jul-22 @ 13:00 to Jul-22 @ 18:00
FM221300 06004KT P6SM SCT250
Wind Visibility Clouds
60° at 4 knots Greater than 6 miles
  • Scattered at 25,000' AGL
KFOE 211732Z 2118/2218 01013G17KT P6SM SKC FM220100 02005KT P6SM FEW250 FM220900 VRB03KT 6SM BR FEW250 FM221300 06004KT P6SM SCT250
Issued Jul-21 @ 17:32 UTC
(6 hours ago)
Valid From Jul-21 @ 18:00 UTC
(5 hours ago)
Valid To Jul-22 @ 18:00 UTC
(in 19 hours)
Jul-21 @ 18:00 - Jul-22 @ 01:00
Wind Visibility
10° at 13 knots
 Gusting to 17 knots
Greater than 6 miles
Clouds
  • Clear skies
From Jul-22 @ 01:00 - Jul-22 @ 09:00
Wind Visibility
20° at 5 knots Greater than 6 miles
Clouds
  • Few at 25,000' AGL
From Jul-22 @ 09:00 - Jul-22 @ 13:00
Wind Visibility
Variable at 3 knots 6 miles
Clouds
  • Few at 25,000' AGL
Conditions
  • Mist
From Jul-22 @ 13:00 - Jul-22 @ 18:00
Wind Visibility
60° at 4 knots Greater than 6 miles
Clouds
  • Scattered at 25,000' AGL